sensor_id;sensor_type;location;lat;lon;timestamp;P1;durP1;ratioP1;P2;durP2;ratioP2
19547;SDS011;9919;58.014;11.826;2022-12-16T00:01:39;0.70;;;0.70;;
19547;SDS011;9919;58.014;11.826;2022-12-16T00:03:41;0.75;;;0.75;;
19547;SDS011;9919;58.014;11.826;2022-12-16T00:05:47;1.23;;;0.70;;
19547;SDS011;9919;58.014;11.826;2022-12-16T00:07:48;0.73;;;0.73;;
19547;SDS011;9919;58.014;11.826;2022-12-16T00:09:50;1.23;;;1.13;;
19547;SDS011;9919;58.014;11.826;2022-12-16T00:11:51;0.80;;;0.80;;
19547;SDS011;9919;58.014;11.826;2022-12-16T00:13:52;0.90;;;0.90;;
19547;SDS011;9919;58.014;11.826;2022-12-16T00:15:54;0.77;;;0.70;;
19547;SDS011;9919;58.014;11.826;2022-12-16T00:17:55;1.27;;;0.80;;
19547;SDS011;9919;58.014;11.826;2022-12-16T00:19:57;0.60;;;0.60;;
19547;SDS011;9919;58.014;11.826;2022-12-16T00:22:02;0.70;;;0.70;;
19547;SDS011;9919;58.014;11.826;2022-12-16T00:24:03;0.77;;;0.77;;
19547;SDS011;9919;58.014;11.826;2022-12-16T00:26:05;3.20;;;0.57;;
19547;SDS011;9919;58.014;11.826;2022-12-16T00:28:07;1.55;;;0.68;;
19547;SDS011;9919;58.014;11.826;2022-12-16T00:30:09;0.70;;;0.70;;
19547;SDS011;9919;58.014;11.826;2022-12-16T00:32:11;0.73;;;0.73;;
19547;SDS011;9919;58.014;11.826;2022-12-16T00:34:13;0.85;;;0.85;;
19547;SDS011;9919;58.014;11.826;2022-12-16T00:36:15;0.60;;;0.60;;
19547;SDS011;9919;58.014;11.826;2022-12-16T00:38:17;0.60;;;0.60;;
19547;SDS011;9919;58.014;11.826;2022-12-16T00:40:19;0.80;;;0.70;;
19547;SDS011;9919;58.014;11.826;2022-12-16T00:42:21;0.70;;;0.68;;
19547;SDS011;9919;58.014;11.826;2022-12-16T00:44:22;2.47;;;0.80;;
19547;SDS011;9919;58.014;11.826;2022-12-16T00:46:23;0.70;;;0.70;;
19547;SDS011;9919;58.014;11.826;2022-12-16T00:48:25;1.05;;;0.93;;
19547;SDS011;9919;58.014;11.826;2022-12-16T00:50:26;0.93;;;0.88;;
19547;SDS011;9919;58.014;11.826;2022-12-16T00:52:28;0.77;;;0.77;;
19547;SDS011;9919;58.014;11.826;2022-12-16T00:54:30;0.60;;;0.60;;
19547;SDS011;9919;58.014;11.826;2022-12-16T00:56:31;1.10;;;0.73;;
19547;SDS011;9919;58.014;11.826;2022-12-16T00:58:33;0.60;;;0.60;;
19547;SDS011;9919;58.014;11.826;2022-12-16T01:00:34;0.60;;;0.60;;
19547;SDS011;9919;58.014;11.826;2022-12-16T01:02:36;0.93;;;0.82;;
19547;SDS011;9919;58.014;11.826;2022-12-16T01:04:39;0.85;;;0.85;;
19547;SDS011;9919;58.014;11.826;2022-12-16T01:06:40;0.55;;;0.55;;
19547;SDS011;9919;58.014;11.826;2022-12-16T01:08:42;4.40;;;0.63;;
19547;SDS011;9919;58.014;11.826;2022-12-16T01:10:53;0.73;;;0.73;;
19547;SDS011;9919;58.014;11.826;2022-12-16T01:12:55;0.80;;;0.80;;
19547;SDS011;9919;58.014;11.826;2022-12-16T01:14:56;0.50;;;0.50;;
19547;SDS011;9919;58.014;11.826;2022-12-16T01:16:58;0.60;;;0.60;;
19547;SDS011;9919;58.014;11.826;2022-12-16T01:19:00;0.52;;;0.52;;
19547;SDS011;9919;58.014;11.826;2022-12-16T01:21:02;0.50;;;0.50;;
19547;SDS011;9919;58.014;11.826;2022-12-16T01:23:05;0.57;;;0.57;;
19547;SDS011;9919;58.014;11.826;2022-12-16T01:25:06;1.20;;;0.75;;
19547;SDS011;9919;58.014;11.826;2022-12-16T01:27:09;0.75;;;0.73;;
19547;SDS011;9919;58.014;11.826;2022-12-16T01:29:11;0.60;;;0.52;;
19547;SDS011;9919;58.014;11.826;2022-12-16T01:31:12;0.65;;;0.65;;
19547;SDS011;9919;58.014;11.826;2022-12-16T01:33:15;0.73;;;0.73;;
19547;SDS011;9919;58.014;11.826;2022-12-16T01:35:17;1.08;;;0.60;;
19547;SDS011;9919;58.014;11.826;2022-12-16T01:37:18;0.55;;;0.55;;
19547;SDS011;9919;58.014;11.826;2022-12-16T01:39:22;0.80;;;0.80;;
19547;SDS011;9919;58.014;11.826;2022-12-16T01:41:26;0.70;;;0.70;;
19547;SDS011;9919;58.014;11.826;2022-12-16T01:43:29;0.63;;;0.63;;
19547;SDS011;9919;58.014;11.826;2022-12-16T01:45:34;0.68;;;0.68;;
19547;SDS011;9919;58.014;11.826;2022-12-16T01:47:36;0.77;;;0.77;;
19547;SDS011;9919;58.014;11.826;2022-12-16T01:49:54;0.75;;;0.75;;
19547;SDS011;9919;58.014;11.826;2022-12-16T01:52:01;0.65;;;0.63;;
19547;SDS011;9919;58.014;11.826;2022-12-16T01:54:15;0.70;;;0.70;;
19547;SDS011;9919;58.014;11.826;2022-12-16T01:56:18;0.52;;;0.52;;
19547;SDS011;9919;58.014;11.826;2022-12-16T01:58:21;0.75;;;0.60;;
19547;SDS011;9919;58.014;11.826;2022-12-16T02:00:29;0.60;;;0.60;;
19547;SDS011;9919;58.014;11.826;2022-12-16T02:02:31;0.70;;;0.70;;
19547;SDS011;9919;58.014;11.826;2022-12-16T02:04:32;0.47;;;0.47;;
19547;SDS011;9919;58.014;11.826;2022-12-16T02:06:34;0.73;;;0.73;;
19547;SDS011;9919;58.014;11.826;2022-12-16T02:08:35;0.55;;;0.55;;
19547;SDS011;9919;58.014;11.826;2022-12-16T02:13:02;0.55;;;0.55;;
19547;SDS011;9919;58.014;11.826;2022-12-16T02:15:11;0.73;;;0.73;;
19547;SDS011;9919;58.014;11.826;2022-12-16T02:26:19;0.63;;;0.63;;
19547;SDS011;9919;58.014;11.826;2022-12-16T02:33:46;0.70;;;0.70;;
19547;SDS011;9919;58.014;11.826;2022-12-16T02:41:21;1.65;;;0.85;;
19547;SDS011;9919;58.014;11.826;2022-12-16T02:42:53;0.40;;;0.40;;
19547;SDS011;9919;58.014;11.826;2022-12-16T02:45:10;0.70;;;0.70;;
19547;SDS011;9919;58.014;11.826;2022-12-16T02:47:24;0.73;;;0.73;;
19547;SDS011;9919;58.014;11.826;2022-12-16T02:51:27;0.50;;;0.50;;
19547;SDS011;9919;58.014;11.826;2022-12-16T02:53:29;0.45;;;0.45;;
19547;SDS011;9919;58.014;11.826;2022-12-16T02:55:48;2.25;;;0.85;;
19547;SDS011;9919;58.014;11.826;2022-12-16T02:57:56;0.60;;;0.60;;
19547;SDS011;9919;58.014;11.826;2022-12-16T03:00:06;0.80;;;0.80;;
19547;SDS011;9919;58.014;11.826;2022-12-16T03:04:29;0.65;;;0.65;;
19547;SDS011;9919;58.014;11.826;2022-12-16T03:06:39;0.60;;;0.60;;
19547;SDS011;9919;58.014;11.826;2022-12-16T03:08:46;0.40;;;0.32;;
19547;SDS011;9919;58.014;11.826;2022-12-16T03:10:51;0.60;;;0.60;;
19547;SDS011;9919;58.014;11.826;2022-12-16T03:12:55;0.82;;;0.63;;
19547;SDS011;9919;58.014;11.826;2022-12-16T03:14:59;0.55;;;0.55;;
19547;SDS011;9919;58.014;11.826;2022-12-16T03:17:01;0.52;;;0.40;;
19547;SDS011;9919;58.014;11.826;2022-12-16T03:19:04;0.52;;;0.52;;
19547;SDS011;9919;58.014;11.826;2022-12-16T03:21:07;0.30;;;0.30;;
19547;SDS011;9919;58.014;11.826;2022-12-16T03:23:10;0.82;;;0.60;;
19547;SDS011;9919;58.014;11.826;2022-12-16T03:25:14;0.40;;;0.40;;
19547;SDS011;9919;58.014;11.826;2022-12-16T03:36:15;0.60;;;0.60;;
19547;SDS011;9919;58.014;11.826;2022-12-16T03:38:20;0.63;;;0.63;;
19547;SDS011;9919;58.014;11.826;2022-12-16T03:40:22;0.68;;;0.68;;
19547;SDS011;9919;58.014;11.826;2022-12-16T03:42:25;0.60;;;0.60;;
19547;SDS011;9919;58.014;11.826;2022-12-16T03:44:26;0.60;;;0.60;;
19547;SDS011;9919;58.014;11.826;2022-12-16T03:46:28;0.50;;;0.50;;
19547;SDS011;9919;58.014;11.826;2022-12-16T03:48:32;0.70;;;0.70;;
19547;SDS011;9919;58.014;11.826;2022-12-16T03:50:35;0.50;;;0.50;;
19547;SDS011;9919;58.014;11.826;2022-12-16T03:52:37;0.50;;;0.50;;
19547;SDS011;9919;58.014;11.826;2022-12-16T03:54:38;0.40;;;0.40;;
19547;SDS011;9919;58.014;11.826;2022-12-16T03:56:40;0.55;;;0.55;;
19547;SDS011;9919;58.014;11.826;2022-12-16T03:58:42;0.40;;;0.40;;
19547;SDS011;9919;58.014;11.826;2022-12-16T04:00:43;0.63;;;0.60;;
19547;SDS011;9919;58.014;11.826;2022-12-16T04:02:44;0.57;;;0.57;;
19547;SDS011;9919;58.014;11.826;2022-12-16T04:04:46;0.90;;;0.70;;
19547;SDS011;9919;58.014;11.826;2022-12-16T04:06:47;0.75;;;0.63;;
19547;SDS011;9919;58.014;11.826;2022-12-16T04:09:09;0.50;;;0.50;;
19547;SDS011;9919;58.014;11.826;2022-12-16T04:11:11;0.60;;;0.60;;
19547;SDS011;9919;58.014;11.826;2022-12-16T04:13:32;0.95;;;0.70;;
19547;SDS011;9919;58.014;11.826;2022-12-16T04:15:52;1.10;;;0.70;;
19547;SDS011;9919;58.014;11.826;2022-12-16T04:18:13;0.73;;;0.68;;
19547;SDS011;9919;58.014;11.826;2022-12-16T04:20:53;1.08;;;0.77;;
19547;SDS011;9919;58.014;11.826;2022-12-16T04:23:15;0.40;;;0.40;;
19547;SDS011;9919;58.014;11.826;2022-12-16T04:25:35;0.50;;;0.50;;
19547;SDS011;9919;58.014;11.826;2022-12-16T04:27:37;0.60;;;0.60;;
19547;SDS011;9919;58.014;11.826;2022-12-16T04:29:39;0.65;;;0.60;;
19547;SDS011;9919;58.014;11.826;2022-12-16T04:31:59;0.45;;;0.45;;
19547;SDS011;9919;58.014;11.826;2022-12-16T04:34:00;0.70;;;0.70;;
19547;SDS011;9919;58.014;11.826;2022-12-16T04:36:22;0.60;;;0.60;;
19547;SDS011;9919;58.014;11.826;2022-12-16T04:38:42;0.50;;;0.50;;
19547;SDS011;9919;58.014;11.826;2022-12-16T04:41:01;0.80;;;0.80;;
19547;SDS011;9919;58.014;11.826;2022-12-16T04:43:21;0.80;;;0.63;;
19547;SDS011;9919;58.014;11.826;2022-12-16T04:45:44;0.55;;;0.50;;
19547;SDS011;9919;58.014;11.826;2022-12-16T04:48:04;0.50;;;0.40;;
19547;SDS011;9919;58.014;11.826;2022-12-16T04:50:24;0.65;;;0.65;;
19547;SDS011;9919;58.014;11.826;2022-12-16T04:52:44;0.75;;;0.55;;
19547;SDS011;9919;58.014;11.826;2022-12-16T04:55:04;0.90;;;0.60;;
19547;SDS011;9919;58.014;11.826;2022-12-16T04:57:24;0.60;;;0.57;;
19547;SDS011;9919;58.014;11.826;2022-12-16T04:59:44;0.60;;;0.60;;
19547;SDS011;9919;58.014;11.826;2022-12-16T05:02:04;0.45;;;0.45;;
19547;SDS011;9919;58.014;11.826;2022-12-16T05:04:25;0.60;;;0.60;;
19547;SDS011;9919;58.014;11.826;2022-12-16T05:06:45;0.57;;;0.57;;
19547;SDS011;9919;58.014;11.826;2022-12-16T05:09:05;0.60;;;0.60;;
19547;SDS011;9919;58.014;11.826;2022-12-16T05:11:25;0.32;;;0.32;;
19547;SDS011;9919;58.014;11.826;2022-12-16T05:13:45;0.40;;;0.40;;
19547;SDS011;9919;58.014;11.826;2022-12-16T05:16:05;0.73;;;0.73;;
19547;SDS011;9919;58.014;11.826;2022-12-16T05:18:26;0.60;;;0.60;;
19547;SDS011;9919;58.014;11.826;2022-12-16T05:20:47;0.63;;;0.63;;
19547;SDS011;9919;58.014;11.826;2022-12-16T05:23:07;0.30;;;0.30;;
19547;SDS011;9919;58.014;11.826;2022-12-16T05:25:27;0.50;;;0.28;;
19547;SDS011;9919;58.014;11.826;2022-12-16T05:27:51;0.75;;;0.75;;
19547;SDS011;9919;58.014;11.826;2022-12-16T05:30:11;0.40;;;0.40;;
19547;SDS011;9919;58.014;11.826;2022-12-16T05:32:31;0.30;;;0.30;;
19547;SDS011;9919;58.014;11.826;2022-12-16T05:34:51;0.43;;;0.43;;
19547;SDS011;9919;58.014;11.826;2022-12-16T05:37:11;5.03;;;0.63;;
19547;SDS011;9919;58.014;11.826;2022-12-16T05:39:31;0.60;;;0.60;;
19547;SDS011;9919;58.014;11.826;2022-12-16T05:41:51;0.40;;;0.40;;
19547;SDS011;9919;58.014;11.826;2022-12-16T05:44:11;1.48;;;0.73;;
19547;SDS011;9919;58.014;11.826;2022-12-16T05:46:31;0.80;;;0.80;;
19547;SDS011;9919;58.014;11.826;2022-12-16T05:48:51;1.10;;;0.60;;
19547;SDS011;9919;58.014;11.826;2022-12-16T05:51:11;0.52;;;0.52;;
19547;SDS011;9919;58.014;11.826;2022-12-16T05:53:30;0.70;;;0.70;;
19547;SDS011;9919;58.014;11.826;2022-12-16T05:55:51;0.63;;;0.57;;
19547;SDS011;9919;58.014;11.826;2022-12-16T05:58:10;0.63;;;0.60;;
19547;SDS011;9919;58.014;11.826;2022-12-16T06:00:30;0.70;;;0.40;;
19547;SDS011;9919;58.014;11.826;2022-12-16T06:02:50;0.52;;;0.50;;
19547;SDS011;9919;58.014;11.826;2022-12-16T06:05:12;0.40;;;0.40;;
19547;SDS011;9919;58.014;11.826;2022-12-16T06:07:32;0.20;;;0.20;;
19547;SDS011;9919;58.014;11.826;2022-12-16T06:09:52;0.68;;;0.50;;
19547;SDS011;9919;58.014;11.826;2022-12-16T06:12:12;0.70;;;0.70;;
19547;SDS011;9919;58.014;11.826;2022-12-16T06:14:31;0.32;;;0.32;;
19547;SDS011;9919;58.014;11.826;2022-12-16T06:16:51;0.70;;;0.70;;
19547;SDS011;9919;58.014;11.826;2022-12-16T06:19:11;0.47;;;0.47;;
19547;SDS011;9919;58.014;11.826;2022-12-16T06:21:31;0.77;;;0.45;;
19547;SDS011;9919;58.014;11.826;2022-12-16T06:23:51;0.50;;;0.50;;
19547;SDS011;9919;58.014;11.826;2022-12-16T06:26:11;0.50;;;0.50;;
19547;SDS011;9919;58.014;11.826;2022-12-16T06:28:31;2.63;;;0.70;;
19547;SDS011;9919;58.014;11.826;2022-12-16T06:30:50;0.50;;;0.50;;
19547;SDS011;9919;58.014;11.826;2022-12-16T06:33:12;1.65;;;0.70;;
19547;SDS011;9919;58.014;11.826;2022-12-16T06:35:32;0.50;;;0.50;;
19547;SDS011;9919;58.014;11.826;2022-12-16T06:37:52;0.70;;;0.70;;
19547;SDS011;9919;58.014;11.826;2022-12-16T06:40:11;0.68;;;0.68;;
19547;SDS011;9919;58.014;11.826;2022-12-16T06:42:31;1.40;;;1.00;;
19547;SDS011;9919;58.014;11.826;2022-12-16T06:44:52;0.65;;;0.65;;
19547;SDS011;9919;58.014;11.826;2022-12-16T06:47:11;0.93;;;0.80;;
19547;SDS011;9919;58.014;11.826;2022-12-16T06:49:31;0.50;;;0.50;;
19547;SDS011;9919;58.014;11.826;2022-12-16T06:51:51;0.77;;;0.75;;
19547;SDS011;9919;58.014;11.826;2022-12-16T06:54:11;0.80;;;0.63;;
19547;SDS011;9919;58.014;11.826;2022-12-16T06:56:30;0.80;;;0.80;;
19547;SDS011;9919;58.014;11.826;2022-12-16T06:58:50;0.68;;;0.65;;
19547;SDS011;9919;58.014;11.826;2022-12-16T07:01:10;0.55;;;0.55;;
19547;SDS011;9919;58.014;11.826;2022-12-16T07:03:30;1.80;;;1.15;;
19547;SDS011;9919;58.014;11.826;2022-12-16T07:05:54;0.60;;;0.60;;
19547;SDS011;9919;58.014;11.826;2022-12-16T07:08:13;0.73;;;0.73;;
19547;SDS011;9919;58.014;11.826;2022-12-16T07:10:34;1.48;;;0.93;;
19547;SDS011;9919;58.014;11.826;2022-12-16T07:12:58;2.90;;;0.77;;
19547;SDS011;9919;58.014;11.826;2022-12-16T07:15:18;1.08;;;0.98;;
19547;SDS011;9919;58.014;11.826;2022-12-16T07:17:39;0.57;;;0.57;;
19547;SDS011;9919;58.014;11.826;2022-12-16T07:19:59;1.30;;;1.00;;
19547;SDS011;9919;58.014;11.826;2022-12-16T07:22:18;0.70;;;0.70;;
19547;SDS011;9919;58.014;11.826;2022-12-16T07:24:40;1.10;;;1.00;;
19547;SDS011;9919;58.014;11.826;2022-12-16T07:27:00;0.82;;;0.70;;
19547;SDS011;9919;58.014;11.826;2022-12-16T07:29:20;1.95;;;0.90;;
19547;SDS011;9919;58.014;11.826;2022-12-16T07:31:40;0.98;;;0.98;;
19547;SDS011;9919;58.014;11.826;2022-12-16T07:34:00;0.70;;;0.70;;
19547;SDS011;9919;58.014;11.826;2022-12-16T07:36:19;0.70;;;0.60;;
19547;SDS011;9919;58.014;11.826;2022-12-16T07:38:39;0.55;;;0.50;;
19547;SDS011;9919;58.014;11.826;2022-12-16T07:40:59;0.63;;;0.63;;
19547;SDS011;9919;58.014;11.826;2022-12-16T07:43:19;2.05;;;1.10;;
19547;SDS011;9919;58.014;11.826;2022-12-16T07:45:39;0.85;;;0.63;;
19547;SDS011;9919;58.014;11.826;2022-12-16T07:47:58;0.70;;;0.70;;
19547;SDS011;9919;58.014;11.826;2022-12-16T07:50:18;1.25;;;0.88;;
19547;SDS011;9919;58.014;11.826;2022-12-16T07:52:39;0.80;;;0.80;;
19547;SDS011;9919;58.014;11.826;2022-12-16T07:55:00;3.35;;;1.08;;
19547;SDS011;9919;58.014;11.826;2022-12-16T07:57:24;1.05;;;0.82;;
19547;SDS011;9919;58.014;11.826;2022-12-16T07:59:44;0.90;;;0.90;;
19547;SDS011;9919;58.014;11.826;2022-12-16T08:02:04;0.75;;;0.75;;
19547;SDS011;9919;58.014;11.826;2022-12-16T08:04:26;1.27;;;0.90;;
19547;SDS011;9919;58.014;11.826;2022-12-16T08:06:47;1.15;;;0.85;;
19547;SDS011;9919;58.014;11.826;2022-12-16T08:09:20;0.98;;;0.77;;
19547;SDS011;9919;58.014;11.826;2022-12-16T08:11:40;0.65;;;0.65;;
19547;SDS011;9919;58.014;11.826;2022-12-16T08:14:00;0.70;;;0.70;;
19547;SDS011;9919;58.014;11.826;2022-12-16T08:16:19;0.70;;;0.70;;
19547;SDS011;9919;58.014;11.826;2022-12-16T08:18:39;0.65;;;0.65;;
19547;SDS011;9919;58.014;11.826;2022-12-16T08:20:59;1.00;;;0.93;;
19547;SDS011;9919;58.014;11.826;2022-12-16T08:23:19;0.55;;;0.55;;
19547;SDS011;9919;58.014;11.826;2022-12-16T08:25:39;1.08;;;0.98;;
19547;SDS011;9919;58.014;11.826;2022-12-16T08:27:59;0.63;;;0.60;;
19547;SDS011;9919;58.014;11.826;2022-12-16T08:30:20;0.70;;;0.70;;
19547;SDS011;9919;58.014;11.826;2022-12-16T08:32:40;1.52;;;0.77;;
19547;SDS011;9919;58.014;11.826;2022-12-16T08:35:00;1.00;;;0.80;;
19547;SDS011;9919;58.014;11.826;2022-12-16T08:37:20;0.70;;;0.70;;
19547;SDS011;9919;58.014;11.826;2022-12-16T08:39:40;0.85;;;0.70;;
19547;SDS011;9919;58.014;11.826;2022-12-16T08:42:00;0.90;;;0.90;;
19547;SDS011;9919;58.014;11.826;2022-12-16T08:44:20;0.65;;;0.65;;
19547;SDS011;9919;58.014;11.826;2022-12-16T08:46:40;1.08;;;0.57;;
19547;SDS011;9919;58.014;11.826;2022-12-16T08:49:00;1.30;;;1.20;;
19547;SDS011;9919;58.014;11.826;2022-12-16T08:51:20;1.05;;;0.98;;
19547;SDS011;9919;58.014;11.826;2022-12-16T08:53:40;1.38;;;1.20;;
19547;SDS011;9919;58.014;11.826;2022-12-16T08:56:04;1.23;;;0.98;;
19547;SDS011;9919;58.014;11.826;2022-12-16T08:58:25;1.05;;;0.85;;
19547;SDS011;9919;58.014;11.826;2022-12-16T09:00:44;1.50;;;0.60;;
19547;SDS011;9919;58.014;11.826;2022-12-16T09:03:05;0.88;;;0.85;;
19547;SDS011;9919;58.014;11.826;2022-12-16T09:05:25;0.70;;;0.70;;
19547;SDS011;9919;58.014;11.826;2022-12-16T09:07:45;0.98;;;0.93;;
19547;SDS011;9919;58.014;11.826;2022-12-16T09:10:05;0.82;;;0.70;;
19547;SDS011;9919;58.014;11.826;2022-12-16T09:12:25;0.70;;;0.70;;
19547;SDS011;9919;58.014;11.826;2022-12-16T09:14:45;1.00;;;0.82;;
19547;SDS011;9919;58.014;11.826;2022-12-16T09:17:05;1.17;;;0.90;;
19547;SDS011;9919;58.014;11.826;2022-12-16T09:19:25;1.35;;;1.25;;
19547;SDS011;9919;58.014;11.826;2022-12-16T09:21:45;1.10;;;0.80;;
19547;SDS011;9919;58.014;11.826;2022-12-16T09:24:06;0.85;;;0.85;;
19547;SDS011;9919;58.014;11.826;2022-12-16T09:26:26;0.93;;;0.90;;
19547;SDS011;9919;58.014;11.826;2022-12-16T09:28:47;0.90;;;0.90;;
19547;SDS011;9919;58.014;11.826;2022-12-16T09:31:07;0.82;;;0.82;;
19547;SDS011;9919;58.014;11.826;2022-12-16T09:33:27;0.82;;;0.70;;
19547;SDS011;9919;58.014;11.826;2022-12-16T09:35:48;0.90;;;0.90;;
19547;SDS011;9919;58.014;11.826;2022-12-16T09:38:09;0.90;;;0.90;;
19547;SDS011;9919;58.014;11.826;2022-12-16T09:40:29;0.70;;;0.70;;
19547;SDS011;9919;58.014;11.826;2022-12-16T09:42:50;0.73;;;0.73;;
19547;SDS011;9919;58.014;11.826;2022-12-16T09:45:18;0.75;;;0.75;;
19547;SDS011;9919;58.014;11.826;2022-12-16T09:47:50;0.73;;;0.73;;
19547;SDS011;9919;58.014;11.826;2022-12-16T09:50:26;2.75;;;0.60;;
19547;SDS011;9919;58.014;11.826;2022-12-16T09:52:49;1.33;;;0.90;;
19547;SDS011;9919;58.014;11.826;2022-12-16T09:55:28;0.52;;;0.52;;
19547;SDS011;9919;58.014;11.826;2022-12-16T09:57:56;0.90;;;0.90;;
19547;SDS011;9919;58.014;11.826;2022-12-16T10:00:21;0.80;;;0.80;;
19547;SDS011;9919;58.014;11.826;2022-12-16T10:02:42;0.68;;;0.65;;
19547;SDS011;9919;58.014;11.826;2022-12-16T10:05:12;1.10;;;1.00;;
19547;SDS011;9919;58.014;11.826;2022-12-16T10:07:42;0.85;;;0.73;;
19547;SDS011;9919;58.014;11.826;2022-12-16T10:15:28;0.80;;;0.77;;
19547;SDS011;9919;58.014;11.826;2022-12-16T10:18:04;0.65;;;0.65;;
19547;SDS011;9919;58.014;11.826;2022-12-16T10:20:52;0.45;;;0.45;;
19547;SDS011;9919;58.014;11.826;2022-12-16T10:23:19;0.50;;;0.50;;
19547;SDS011;9919;58.014;11.826;2022-12-16T10:29:18;1.60;;;0.63;;
19547;SDS011;9919;58.014;11.826;2022-12-16T10:31:39;0.60;;;0.60;;
19547;SDS011;9919;58.014;11.826;2022-12-16T10:33:59;0.77;;;0.77;;
19547;SDS011;9919;58.014;11.826;2022-12-16T10:36:20;0.70;;;0.70;;
19547;SDS011;9919;58.014;11.826;2022-12-16T10:38:42;1.00;;;0.88;;
19547;SDS011;9919;58.014;11.826;2022-12-16T10:41:09;0.75;;;0.75;;
19547;SDS011;9919;58.014;11.826;2022-12-16T10:43:33;4.60;;;0.90;;
19547;SDS011;9919;58.014;11.826;2022-12-16T10:45:54;0.60;;;0.60;;
19547;SDS011;9919;58.014;11.826;2022-12-16T10:48:17;1.55;;;1.05;;
19547;SDS011;9919;58.014;11.826;2022-12-16T10:50:42;0.65;;;0.65;;
19547;SDS011;9919;58.014;11.826;2022-12-16T10:53:02;0.70;;;0.70;;
19547;SDS011;9919;58.014;11.826;2022-12-16T11:01:23;0.60;;;0.60;;
19547;SDS011;9919;58.014;11.826;2022-12-16T11:03:44;0.70;;;0.70;;
19547;SDS011;9919;58.014;11.826;2022-12-16T11:06:04;0.80;;;0.80;;
19547;SDS011;9919;58.014;11.826;2022-12-16T11:10:49;0.80;;;0.80;;
19547;SDS011;9919;58.014;11.826;2022-12-16T11:15:50;1.05;;;0.93;;
19547;SDS011;9919;58.014;11.826;2022-12-16T11:18:25;0.70;;;0.70;;
19547;SDS011;9919;58.014;11.826;2022-12-16T11:20:45;0.82;;;0.82;;
19547;SDS011;9919;58.014;11.826;2022-12-16T11:23:28;1.58;;;0.93;;
19547;SDS011;9919;58.014;11.826;2022-12-16T11:26:00;1.45;;;1.00;;
19547;SDS011;9919;58.014;11.826;2022-12-16T11:28:27;0.90;;;0.90;;
19547;SDS011;9919;58.014;11.826;2022-12-16T11:30:50;1.10;;;1.00;;
19547;SDS011;9919;58.014;11.826;2022-12-16T11:35:43;0.90;;;0.90;;
19547;SDS011;9919;58.014;11.826;2022-12-16T11:38:13;0.80;;;0.80;;
19547;SDS011;9919;58.014;11.826;2022-12-16T11:40:38;1.27;;;1.17;;
19547;SDS011;9919;58.014;11.826;2022-12-16T11:42:59;0.60;;;0.60;;
19547;SDS011;9919;58.014;11.826;2022-12-16T11:45:22;0.90;;;0.90;;
19547;SDS011;9919;58.014;11.826;2022-12-16T11:47:49;2.92;;;0.70;;
19547;SDS011;9919;58.014;11.826;2022-12-16T11:50:13;1.20;;;1.00;;
19547;SDS011;9919;58.014;11.826;2022-12-16T11:52:35;4.20;;;1.25;;
19547;SDS011;9919;58.014;11.826;2022-12-16T11:54:58;1.10;;;1.10;;
19547;SDS011;9919;58.014;11.826;2022-12-16T11:57:38;1.08;;;1.08;;
19547;SDS011;9919;58.014;11.826;2022-12-16T12:00:19;2.03;;;1.45;;
19547;SDS011;9919;58.014;11.826;2022-12-16T12:02:41;1.10;;;1.10;;
19547;SDS011;9919;58.014;11.826;2022-12-16T12:05:12;0.98;;;0.98;;
19547;SDS011;9919;58.014;11.826;2022-12-16T12:10:23;1.40;;;1.30;;
19547;SDS011;9919;58.014;11.826;2022-12-16T12:12:55;1.08;;;1.08;;
19547;SDS011;9919;58.014;11.826;2022-12-16T12:15:22;1.40;;;1.30;;
19547;SDS011;9919;58.014;11.826;2022-12-16T12:20:49;0.93;;;0.93;;
19547;SDS011;9919;58.014;11.826;2022-12-16T12:26:10;0.70;;;0.70;;
19547;SDS011;9919;58.014;11.826;2022-12-16T12:36:37;1.77;;;1.30;;
19547;SDS011;9919;58.014;11.826;2022-12-16T12:41:26;1.10;;;1.00;;
19547;SDS011;9919;58.014;11.826;2022-12-16T12:44:03;1.25;;;1.15;;
19547;SDS011;9919;58.014;11.826;2022-12-16T12:51:57;1.45;;;1.30;;
19547;SDS011;9919;58.014;11.826;2022-12-16T12:55:18;1.75;;;1.65;;
19547;SDS011;9919;58.014;11.826;2022-12-16T12:57:26;1.48;;;1.40;;
19547;SDS011;9919;58.014;11.826;2022-12-16T12:59:55;1.50;;;1.40;;
19547;SDS011;9919;58.014;11.826;2022-12-16T13:02:26;2.05;;;1.38;;
19547;SDS011;9919;58.014;11.826;2022-12-16T13:04:48;2.00;;;1.40;;
19547;SDS011;9919;58.014;11.826;2022-12-16T13:07:09;1.48;;;1.38;;
19547;SDS011;9919;58.014;11.826;2022-12-16T13:09:33;1.67;;;1.58;;
19547;SDS011;9919;58.014;11.826;2022-12-16T13:16:55;2.60;;;2.15;;
19547;SDS011;9919;58.014;11.826;2022-12-16T13:21:47;2.20;;;2.00;;
19547;SDS011;9919;58.014;11.826;2022-12-16T13:27:00;2.28;;;2.10;;
19547;SDS011;9919;58.014;11.826;2022-12-16T13:29:27;3.47;;;2.60;;
19547;SDS011;9919;58.014;11.826;2022-12-16T13:34:38;2.00;;;1.80;;
19547;SDS011;9919;58.014;11.826;2022-12-16T13:36:58;3.05;;;2.08;;
19547;SDS011;9919;58.014;11.826;2022-12-16T13:39:21;1.73;;;1.63;;
19547;SDS011;9919;58.014;11.826;2022-12-16T13:41:46;3.58;;;1.65;;
19547;SDS011;9919;58.014;11.826;2022-12-16T13:44:07;1.90;;;1.63;;
19547;SDS011;9919;58.014;11.826;2022-12-16T13:49:32;1.77;;;1.67;;
19547;SDS011;9919;58.014;11.826;2022-12-16T13:52:03;1.90;;;1.80;;
19547;SDS011;9919;58.014;11.826;2022-12-16T13:54:40;3.30;;;2.00;;
19547;SDS011;9919;58.014;11.826;2022-12-16T13:57:04;1.90;;;1.80;;
19547;SDS011;9919;58.014;11.826;2022-12-16T13:59:27;1.83;;;1.73;;
19547;SDS011;9919;58.014;11.826;2022-12-16T14:01:51;2.20;;;1.77;;
19547;SDS011;9919;58.014;11.826;2022-12-16T14:04:14;1.85;;;1.75;;
19547;SDS011;9919;58.014;11.826;2022-12-16T14:06:52;1.90;;;1.80;;
19547;SDS011;9919;58.014;11.826;2022-12-16T14:09:29;2.20;;;2.00;;
19547;SDS011;9919;58.014;11.826;2022-12-16T14:11:57;2.13;;;1.70;;
19547;SDS011;9919;58.014;11.826;2022-12-16T14:14:31;2.17;;;1.95;;
19547;SDS011;9919;58.014;11.826;2022-12-16T14:17:00;1.88;;;1.77;;
19547;SDS011;9919;58.014;11.826;2022-12-16T14:19:25;1.60;;;1.50;;
19547;SDS011;9919;58.014;11.826;2022-12-16T14:24:42;1.25;;;1.25;;
19547;SDS011;9919;58.014;11.826;2022-12-16T14:27:11;1.48;;;1.40;;
19547;SDS011;9919;58.014;11.826;2022-12-16T14:29:32;1.20;;;1.20;;
19547;SDS011;9919;58.014;11.826;2022-12-16T14:31:53;1.60;;;1.50;;
19547;SDS011;9919;58.014;11.826;2022-12-16T14:36:40;1.63;;;1.52;;
19547;SDS011;9919;58.014;11.826;2022-12-16T14:39:00;1.88;;;1.77;;
19547;SDS011;9919;58.014;11.826;2022-12-16T14:41:21;2.28;;;1.75;;
19547;SDS011;9919;58.014;11.826;2022-12-16T14:43:42;2.30;;;2.10;;
19547;SDS011;9919;58.014;11.826;2022-12-16T14:46:02;2.13;;;1.95;;
19547;SDS011;9919;58.014;11.826;2022-12-16T14:48:24;1.85;;;1.75;;
19547;SDS011;9919;58.014;11.826;2022-12-16T14:50:51;2.08;;;1.88;;
19547;SDS011;9919;58.014;11.826;2022-12-16T14:53:16;1.80;;;1.70;;
19547;SDS011;9919;58.014;11.826;2022-12-16T14:55:37;2.25;;;2.05;;
19547;SDS011;9919;58.014;11.826;2022-12-16T14:58:04;1.73;;;1.60;;
19547;SDS011;9919;58.014;11.826;2022-12-16T15:00:27;2.17;;;1.40;;
19547;SDS011;9919;58.014;11.826;2022-12-16T15:02:47;1.55;;;1.45;;
19547;SDS011;9919;58.014;11.826;2022-12-16T15:05:13;1.48;;;1.38;;
19547;SDS011;9919;58.014;11.826;2022-12-16T15:07:54;1.48;;;1.35;;
19547;SDS011;9919;58.014;11.826;2022-12-16T15:10:14;1.50;;;1.40;;
19547;SDS011;9919;58.014;11.826;2022-12-16T15:12:43;1.95;;;1.30;;
19547;SDS011;9919;58.014;11.826;2022-12-16T15:15:04;1.17;;;1.17;;
19547;SDS011;9919;58.014;11.826;2022-12-16T15:17:43;1.45;;;1.40;;
19547;SDS011;9919;58.014;11.826;2022-12-16T15:20:26;3.13;;;1.40;;
19547;SDS011;9919;58.014;11.826;2022-12-16T15:22:47;1.70;;;1.60;;
19547;SDS011;9919;58.014;11.826;2022-12-16T15:25:22;1.45;;;1.40;;
19547;SDS011;9919;58.014;11.826;2022-12-16T15:27:43;2.80;;;1.50;;
19547;SDS011;9919;58.014;11.826;2022-12-16T15:32:59;1.70;;;1.60;;
19547;SDS011;9919;58.014;11.826;2022-12-16T15:37:44;1.40;;;1.30;;